AirNav   ATP
 
 1338 users online  

39P Strom Field Airport
Morton, Washington, USA

GOING TO MORTON?


FAA INFORMATION EFFECTIVE 08 NOVEMBER 2018

Location

FAA Identifier: 39P
Lat/Long: 46-33-01.2990N / 122-15-59.8530W
46-33.021650N / 122-15.997550W
46.5503608 / -122.2666258
(estimated)
Elevation: 941 ft. / 287 m (estimated)
Variation: 20E (1985)
Time zone: UTC -8 (UTC -7 during Daylight Saving Time)
Zip code: 98356

Airport Operations

Airport use: Open to the public
Activation date: 08/1964
Control tower: no
ARTCC: SEATTLE CENTER
FSS: SEATTLE FLIGHT SERVICE STATION
NOTAMs facility: SEA (NOTAM-D service available)
Attendance: UNATNDD
Wind indicator: lighted
Segmented circle: no
Lights: ACTVT MIRL RY 07/25 - CTAF.
Beacon: white-green (lighted land airport)
ACTVT ROTG BCN - CTAF.

Airport Communications

CTAF: 122.9

Nearby radio navigation aids

VOR radial/distance  VOR name  Freq  Var
OLMr115/36.3OLYMPIA VORTAC113.4019E
TCMr152/36.8MCCHORD VORTAC109.6015E

 
NDB name  Hdg/Dist  Freq  Var  ID
LACOMAS141/29.932816ELAC .-.. .- -.-.
KELSO031/35.725617ELSO .-.. ... ---
GRAYE143/38.621616EGRF --. .-. ..-.

Airport Services

Parking: tiedowns
Airframe service: NONE
Powerplant service: NONE

Runway Information

Runway 7/25

Dimensions: 1810 x 40 ft. / 552 x 12 m
Surface: asphalt, in fair condition
Runway edge lights: medium intensity
Runway edge markings: MARKINGS FADED.
RUNWAY 7  RUNWAY 25
Latitude: 46-33.022283N46-33.021000N
Longitude: 122-16.213367W122-15.781733W
Traffic pattern: leftleft
Runway heading: 070 magnetic, 090 true250 magnetic, 270 true
Displaced threshold: 200 ft.no
Markings: basic, in poor conditionbasic, in poor condition
Obstructions: 50 ft. pline, 324 ft. from runway, 2:1 slope to clear
+3 FT FENCE AT 35 FT FM THLD AND 32 FT R; GUARD RAIL AND ROAD 98 FT FM THLD; 15 FT SIGN, 18 FT R, 65 FT FM THLD; TREE, 51 FT HIGH, 2 FT R, 120 FT FM THLD.
41 ft. trees, 1318 ft. from runway, 40 ft. both sides of centerline, 27:1 slope to clear
RWY 25 +2 FT ROAD AND GUARD RAIL AT 15 FT FM THLD, TREE, 15 FT HIGH, 49 FT R, 74 FT FM THLD, POLE, 8 FT HIGH, 79 FT R, 8 FT FM THLD.

Airport Ownership and Management from official FAA records

Ownership: Publicly-owned
Owner: CITY OF MORTON
PO BOX 1089
MORTON, WA 98356
Phone 360-496-6881
Manager: ANDERS PULLMAN
PO BOX 1089, PO BOX 1089
MORTON, WA 98356
Phone (360) 496-5210
PUB. WKS. SUP.

Airport Operational Statistics

Aircraft based on the field: 6
Single engine airplanes: 4
Ultralights: 2
    
Aircraft operations: avg 22/day *
82% transient general aviation
18% local general aviation
<1% military
* for 12-month period ending 31 December 2017

Additional Remarks

TREES NEAR RWY.
TREES, STREAM, AND BRUSH IN PRIM SFC.
DEER AND ELK ON & INVOF RWY.
DITCH PARL RWY ON EASTSIDE.

Instrument Procedures

There are no published instrument procedures at 39P.

Some nearby airports with instrument procedures:

KTDO - Ed Carlson Memorial Field - South Lewis Co Airport (23 nm W)
KCLS - Chehalis-Centralia Airport (30 nm W)
KPLU - Pierce County Airport - Thun Field (33 nm N)
KGRF - Gray Army Airfield (Joint Base Lewis-McChord) (34 nm N)
KOLM - Olympia Regional Airport (36 nm NW)
 
Loc | Ops | Rwys | IFR | FBO | Links
Com | Nav | Svcs | Stats | Notes


 
Area around 39P (Strom Field Airport)
 
Road maps at: MapQuest Bing Google
 
Aerial photo
WARNING: Photo may not be current or correct
Aerial photo of 39P (Strom Field Airport)
Photo taken 01-Sep-2012
looking west.

Do you have a better or more recent aerial photo of Strom Field Airport that you would like to share? If so, please send us your photo.

 
Sectional chart

 
Airport distance calculator
Flying to Strom Field Airport? Find the distance to fly.

From to 39P

Sunrise and sunset
Times for 21-Nov-2018
 Local
(UTC-8)
 Zulu
(UTC)
Morning civil twilight06:4714:47
Sunrise07:2115:21
Sunset16:2900:29
Evening civil twilight17:0301:03

Current date and time
Zulu (UTC)  21-Nov-2018 15:17:39
Local (UTC-8)  21-Nov-2018 07:17:39
 
METAR
KCLS 
30nm W 
211455Z AUTO 00000KT 9SM -RA FEW048 BKN060 OVC075 06/04 A2979 RMK AO2 P0001
KPLU 
33nm N 
211455Z AUTO 00000KT 10SM FEW034 BKN041 OVC070 07/05 A2979 RMK AO2
KGRF 
33nm N 
211458Z 00000KT 10SM OVC075 06/06 A2977 RMK AO2A RAB19E40 SLP087 P0000 60000 57014
KTCM 
35nm N 
211358Z AUTO 00000KT 10SM FEW080 06/06 A2979 RMK AO2 SLP094 T00550055 $
KOLM 
36nm NW 
211454Z AUTO 19004KT 7SM -RA OVC065 05/04 A2979 RMK AO2 SLP090 P0002 60002 T00500044 56010
KKLS 
37nm SW 
211456Z AUTO 14007KT 10SM -RA OVC070 07/02 A2981 RMK AO2 SLP099 P0000 60000 T00670017 56013
TAF
KGRF 
33nm N 
211305Z 2113/2219 15009KT 9000 -RA SCT020 BKN060 620606 QNH2979INS BECMG 2119/2120 19012KT 8000 -RA BKN020 620804 QNH2976INS TEMPO 2120/2202 BKN010 BECMG 2202/2203 18006KT 8000 -RA BKN010 620804 QNH2972INS BECMG 2207/2208 18009KT 8000 -RA BKN015 620804 QNH2965INS BECMG 2214/2215 20012G18KT 9000 -SHRA BKN020 QNH2970INS TX08/2200Z TN02/2113Z
KTCM 
35nm N 
211305Z 2113/2219 15009KT 9000 -RA SCT020 BKN060 620804 QNH2979INS BECMG 2119/2120 19012KT 8000 -RA BKN020 620804 QNH2976INS TEMPO 2120/2202 BKN010 BECMG 2202/2203 18006KT 8000 -RA BKN010 620606 QNH2972INS BECMG 2207/2208 18009KT 8000 -RA BKN015 620804 QNH2965INS BECMG 2214/2215 20012G18KT 9000 -SHRA BKN020 QNH2970INS TX08/2200Z TN05/2113Z
KOLM 
36nm NW 
211137Z 2112/2212 VRB05KT P6SM -RA BKN050 OVC070 TEMPO 2115/2118 6SM -RA BR BKN030 OVC050 FM211800 19007KT P6SM -RA BKN030 OVC050 FM220100 20005KT P6SM VCSH FEW018 BKN030 OVC050 FM220600 19005KT 5SM -RA BR BKN014 OVC025
NOTAMs
Click for the latest NOTAMs
NOTAMs are issued by the DoD/FAA and will open in a separate window not controlled by AirNav.

 

 
 

Would you like to see your business listed on this page?

 If your business provides an interesting product or service to pilots, flight crews, aircraft, or users of the Strom Field Airport, you should consider listing it here.  To start the listing process, click on the button below
 
Add a business
 

Other Pages about Strom Field Airport

Update a link
 
Copyright © AirNav, LLC. All rights reserved. Privacy Policy  Contact